sensor_id;sensor_type;location;lat;lon;timestamp;P1;durP1;ratioP1;P2;durP2;ratioP2
69047;SDS011;56119;50.118;8.642;2023-05-18T00:00:09;13.43;;;3.50;;
69047;SDS011;56119;50.118;8.642;2023-05-18T00:02:38;9.00;;;3.30;;
69047;SDS011;56119;50.118;8.642;2023-05-18T00:05:05;9.68;;;3.22;;
69047;SDS011;56119;50.118;8.642;2023-05-18T00:07:32;10.15;;;2.90;;
69047;SDS011;56119;50.118;8.642;2023-05-18T00:10:00;12.43;;;3.28;;
69047;SDS011;56119;50.118;8.642;2023-05-18T00:12:26;8.60;;;3.88;;
69047;SDS011;56119;50.118;8.642;2023-05-18T00:14:52;12.02;;;3.38;;
69047;SDS011;56119;50.118;8.642;2023-05-18T00:17:18;11.40;;;3.08;;
69047;SDS011;56119;50.118;8.642;2023-05-18T00:19:44;13.50;;;3.47;;
69047;SDS011;56119;50.118;8.642;2023-05-18T00:22:10;9.90;;;3.42;;
69047;SDS011;56119;50.118;8.642;2023-05-18T00:24:41;8.82;;;3.17;;
69047;SDS011;56119;50.118;8.642;2023-05-18T00:27:07;9.95;;;3.03;;
69047;SDS011;56119;50.118;8.642;2023-05-18T00:29:33;14.45;;;4.00;;
69047;SDS011;56119;50.118;8.642;2023-05-18T00:31:59;8.43;;;3.10;;
69047;SDS011;56119;50.118;8.642;2023-05-18T00:34:25;11.23;;;3.78;;
69047;SDS011;56119;50.118;8.642;2023-05-18T00:36:51;10.07;;;3.17;;
69047;SDS011;56119;50.118;8.642;2023-05-18T00:39:17;11.88;;;3.33;;
69047;SDS011;56119;50.118;8.642;2023-05-18T00:41:43;12.35;;;3.55;;
69047;SDS011;56119;50.118;8.642;2023-05-18T00:44:09;9.82;;;3.38;;
69047;SDS011;56119;50.118;8.642;2023-05-18T00:46:35;12.35;;;3.72;;
69047;SDS011;56119;50.118;8.642;2023-05-18T00:49:01;8.63;;;3.10;;
69047;SDS011;56119;50.118;8.642;2023-05-18T00:51:28;7.05;;;2.70;;
69047;SDS011;56119;50.118;8.642;2023-05-18T00:53:55;12.80;;;3.17;;
69047;SDS011;56119;50.118;8.642;2023-05-18T00:56:21;10.18;;;3.00;;
69047;SDS011;56119;50.118;8.642;2023-05-18T00:58:49;7.47;;;2.58;;
69047;SDS011;56119;50.118;8.642;2023-05-18T01:01:17;12.70;;;3.60;;
69047;SDS011;56119;50.118;8.642;2023-05-18T01:03:44;10.48;;;2.67;;
69047;SDS011;56119;50.118;8.642;2023-05-18T01:06:10;12.93;;;3.60;;
69047;SDS011;56119;50.118;8.642;2023-05-18T01:08:36;10.82;;;3.17;;
69047;SDS011;56119;50.118;8.642;2023-05-18T01:13:36;9.13;;;3.38;;
69047;SDS011;56119;50.118;8.642;2023-05-18T01:16:05;9.80;;;3.00;;
69047;SDS011;56119;50.118;8.642;2023-05-18T01:18:36;14.05;;;3.65;;
69047;SDS011;56119;50.118;8.642;2023-05-18T01:21:09;9.65;;;3.47;;
69047;SDS011;56119;50.118;8.642;2023-05-18T01:26:22;16.13;;;3.80;;
69047;SDS011;56119;50.118;8.642;2023-05-18T01:28:49;9.25;;;3.30;;
69047;SDS011;56119;50.118;8.642;2023-05-18T01:31:15;11.25;;;2.97;;
69047;SDS011;56119;50.118;8.642;2023-05-18T01:33:42;11.43;;;3.17;;
69047;SDS011;56119;50.118;8.642;2023-05-18T01:36:08;9.88;;;3.15;;
69047;SDS011;56119;50.118;8.642;2023-05-18T01:38:35;8.27;;;2.67;;
69047;SDS011;56119;50.118;8.642;2023-05-18T01:43:34;12.02;;;3.58;;
69047;SDS011;56119;50.118;8.642;2023-05-18T01:46:03;10.45;;;4.13;;
69047;SDS011;56119;50.118;8.642;2023-05-18T01:48:30;11.40;;;3.60;;
69047;SDS011;56119;50.118;8.642;2023-05-18T01:50:57;14.27;;;3.30;;
69047;SDS011;56119;50.118;8.642;2023-05-18T01:53:24;8.65;;;3.15;;
69047;SDS011;56119;50.118;8.642;2023-05-18T01:55:53;10.02;;;3.33;;
69047;SDS011;56119;50.118;8.642;2023-05-18T01:58:19;11.85;;;3.40;;
69047;SDS011;56119;50.118;8.642;2023-05-18T02:00:46;11.80;;;3.35;;
69047;SDS011;56119;50.118;8.642;2023-05-18T02:03:13;12.38;;;3.55;;
69047;SDS011;56119;50.118;8.642;2023-05-18T02:05:39;12.82;;;3.35;;
69047;SDS011;56119;50.118;8.642;2023-05-18T02:08:05;8.13;;;3.17;;
69047;SDS011;56119;50.118;8.642;2023-05-18T02:10:31;10.30;;;3.50;;
69047;SDS011;56119;50.118;8.642;2023-05-18T02:12:57;13.43;;;3.70;;
69047;SDS011;56119;50.118;8.642;2023-05-18T02:15:23;12.13;;;3.95;;
69047;SDS011;56119;50.118;8.642;2023-05-18T02:17:49;13.38;;;3.70;;
69047;SDS011;56119;50.118;8.642;2023-05-18T02:20:15;10.18;;;3.47;;
69047;SDS011;56119;50.118;8.642;2023-05-18T02:22:42;9.77;;;3.10;;
69047;SDS011;56119;50.118;8.642;2023-05-18T02:25:08;10.43;;;3.47;;
69047;SDS011;56119;50.118;8.642;2023-05-18T02:27:34;8.63;;;3.50;;
69047;SDS011;56119;50.118;8.642;2023-05-18T02:30:01;8.73;;;3.60;;
69047;SDS011;56119;50.118;8.642;2023-05-18T02:32:29;10.13;;;3.10;;
69047;SDS011;56119;50.118;8.642;2023-05-18T02:34:56;10.75;;;4.10;;
69047;SDS011;56119;50.118;8.642;2023-05-18T02:37:27;6.72;;;3.63;;
69047;SDS011;56119;50.118;8.642;2023-05-18T02:39:53;11.85;;;3.63;;
69047;SDS011;56119;50.118;8.642;2023-05-18T02:42:19;11.43;;;3.90;;
69047;SDS011;56119;50.118;8.642;2023-05-18T02:44:45;7.60;;;3.35;;
69047;SDS011;56119;50.118;8.642;2023-05-18T02:47:11;9.70;;;3.40;;
69047;SDS011;56119;50.118;8.642;2023-05-18T02:49:37;10.68;;;4.03;;
69047;SDS011;56119;50.118;8.642;2023-05-18T02:52:03;6.90;;;3.30;;
69047;SDS011;56119;50.118;8.642;2023-05-18T02:54:29;10.95;;;3.60;;
69047;SDS011;56119;50.118;8.642;2023-05-18T02:56:56;10.13;;;3.40;;
69047;SDS011;56119;50.118;8.642;2023-05-18T02:59:22;9.30;;;3.90;;
69047;SDS011;56119;50.118;8.642;2023-05-18T03:01:48;8.95;;;3.45;;
69047;SDS011;56119;50.118;8.642;2023-05-18T03:04:15;9.85;;;3.55;;
69047;SDS011;56119;50.118;8.642;2023-05-18T03:06:41;6.85;;;3.05;;
69047;SDS011;56119;50.118;8.642;2023-05-18T03:09:10;9.45;;;3.60;;
69047;SDS011;56119;50.118;8.642;2023-05-18T03:11:36;7.15;;;3.25;;
69047;SDS011;56119;50.118;8.642;2023-05-18T03:14:02;7.55;;;3.65;;
69047;SDS011;56119;50.118;8.642;2023-05-18T03:16:28;8.90;;;2.85;;
69047;SDS011;56119;50.118;8.642;2023-05-18T03:18:54;7.47;;;3.67;;
69047;SDS011;56119;50.118;8.642;2023-05-18T03:21:22;10.02;;;4.07;;
69047;SDS011;56119;50.118;8.642;2023-05-18T03:23:48;9.30;;;3.20;;
69047;SDS011;56119;50.118;8.642;2023-05-18T03:26:15;12.80;;;3.67;;
69047;SDS011;56119;50.118;8.642;2023-05-18T03:28:42;8.75;;;3.10;;
69047;SDS011;56119;50.118;8.642;2023-05-18T03:31:08;8.18;;;3.45;;
69047;SDS011;56119;50.118;8.642;2023-05-18T03:33:34;13.05;;;4.45;;
69047;SDS011;56119;50.118;8.642;2023-05-18T03:36:01;7.82;;;3.25;;
69047;SDS011;56119;50.118;8.642;2023-05-18T03:38:27;13.88;;;3.85;;
69047;SDS011;56119;50.118;8.642;2023-05-18T03:40:53;13.48;;;3.60;;
69047;SDS011;56119;50.118;8.642;2023-05-18T03:43:20;6.18;;;3.42;;
69047;SDS011;56119;50.118;8.642;2023-05-18T03:45:49;6.85;;;3.35;;
69047;SDS011;56119;50.118;8.642;2023-05-18T03:48:15;9.07;;;3.35;;
69047;SDS011;56119;50.118;8.642;2023-05-18T03:50:41;7.97;;;3.70;;
69047;SDS011;56119;50.118;8.642;2023-05-18T03:53:07;5.95;;;3.08;;
69047;SDS011;56119;50.118;8.642;2023-05-18T03:55:33;14.50;;;4.35;;
69047;SDS011;56119;50.118;8.642;2023-05-18T03:57:59;9.82;;;3.58;;
69047;SDS011;56119;50.118;8.642;2023-05-18T04:00:25;10.05;;;3.70;;
69047;SDS011;56119;50.118;8.642;2023-05-18T04:02:51;12.90;;;3.83;;
69047;SDS011;56119;50.118;8.642;2023-05-18T04:05:17;10.13;;;3.70;;
69047;SDS011;56119;50.118;8.642;2023-05-18T04:07:43;11.15;;;3.70;;
69047;SDS011;56119;50.118;8.642;2023-05-18T04:10:10;12.18;;;4.05;;
69047;SDS011;56119;50.118;8.642;2023-05-18T04:12:37;8.05;;;3.35;;
69047;SDS011;56119;50.118;8.642;2023-05-18T04:15:03;10.05;;;3.67;;
69047;SDS011;56119;50.118;8.642;2023-05-18T04:17:29;10.45;;;3.95;;
69047;SDS011;56119;50.118;8.642;2023-05-18T04:19:55;6.78;;;3.83;;
69047;SDS011;56119;50.118;8.642;2023-05-18T04:22:21;9.23;;;3.70;;
69047;SDS011;56119;50.118;8.642;2023-05-18T04:24:47;11.90;;;3.50;;
69047;SDS011;56119;50.118;8.642;2023-05-18T04:27:14;8.38;;;3.70;;
69047;SDS011;56119;50.118;8.642;2023-05-18T04:29:40;7.95;;;3.85;;
69047;SDS011;56119;50.118;8.642;2023-05-18T04:32:07;8.35;;;3.95;;
69047;SDS011;56119;50.118;8.642;2023-05-18T04:34:34;10.02;;;4.20;;
69047;SDS011;56119;50.118;8.642;2023-05-18T04:37:01;8.07;;;4.50;;
69047;SDS011;56119;50.118;8.642;2023-05-18T04:39:29;10.30;;;3.65;;
69047;SDS011;56119;50.118;8.642;2023-05-18T04:41:56;7.57;;;3.65;;
69047;SDS011;56119;50.118;8.642;2023-05-18T04:44:26;13.02;;;3.67;;
69047;SDS011;56119;50.118;8.642;2023-05-18T04:46:52;9.23;;;3.70;;
69047;SDS011;56119;50.118;8.642;2023-05-18T04:49:18;11.07;;;3.38;;
69047;SDS011;56119;50.118;8.642;2023-05-18T04:51:51;13.50;;;4.18;;
69047;SDS011;56119;50.118;8.642;2023-05-18T04:54:20;10.45;;;3.78;;
69047;SDS011;56119;50.118;8.642;2023-05-18T04:56:47;8.43;;;3.30;;
69047;SDS011;56119;50.118;8.642;2023-05-18T04:59:13;9.65;;;3.47;;
69047;SDS011;56119;50.118;8.642;2023-05-18T05:01:39;8.80;;;3.92;;
69047;SDS011;56119;50.118;8.642;2023-05-18T05:04:05;13.88;;;4.05;;
69047;SDS011;56119;50.118;8.642;2023-05-18T05:06:31;13.55;;;3.70;;
69047;SDS011;56119;50.118;8.642;2023-05-18T05:08:57;7.43;;;3.90;;
69047;SDS011;56119;50.118;8.642;2023-05-18T05:11:23;7.53;;;3.30;;
69047;SDS011;56119;50.118;8.642;2023-05-18T05:13:49;12.05;;;3.92;;
69047;SDS011;56119;50.118;8.642;2023-05-18T05:16:15;8.93;;;3.42;;
69047;SDS011;56119;50.118;8.642;2023-05-18T05:18:41;10.02;;;3.67;;
69047;SDS011;56119;50.118;8.642;2023-05-18T05:21:07;8.05;;;3.38;;
69047;SDS011;56119;50.118;8.642;2023-05-18T05:23:33;5.80;;;3.30;;
69047;SDS011;56119;50.118;8.642;2023-05-18T05:25:59;11.50;;;3.38;;
69047;SDS011;56119;50.118;8.642;2023-05-18T05:28:25;12.27;;;3.70;;
69047;SDS011;56119;50.118;8.642;2023-05-18T05:30:51;8.77;;;3.42;;
69047;SDS011;56119;50.118;8.642;2023-05-18T05:33:17;6.45;;;3.55;;
69047;SDS011;56119;50.118;8.642;2023-05-18T05:35:43;10.93;;;3.63;;
69047;SDS011;56119;50.118;8.642;2023-05-18T05:38:09;6.93;;;4.00;;
69047;SDS011;56119;50.118;8.642;2023-05-18T05:40:35;9.68;;;4.05;;
69047;SDS011;56119;50.118;8.642;2023-05-18T05:43:03;7.47;;;3.53;;
69047;SDS011;56119;50.118;8.642;2023-05-18T05:45:30;15.32;;;4.00;;
69047;SDS011;56119;50.118;8.642;2023-05-18T05:47:56;6.03;;;3.42;;
69047;SDS011;56119;50.118;8.642;2023-05-18T05:50:22;9.00;;;3.70;;
69047;SDS011;56119;50.118;8.642;2023-05-18T05:52:48;8.48;;;3.80;;
69047;SDS011;56119;50.118;8.642;2023-05-18T05:55:14;8.98;;;3.40;;
69047;SDS011;56119;50.118;8.642;2023-05-18T05:57:40;10.73;;;3.40;;
69047;SDS011;56119;50.118;8.642;2023-05-18T06:00:07;8.35;;;3.00;;
69047;SDS011;56119;50.118;8.642;2023-05-18T06:02:34;7.32;;;3.55;;
69047;SDS011;56119;50.118;8.642;2023-05-18T06:05:00;11.25;;;3.80;;
69047;SDS011;56119;50.118;8.642;2023-05-18T06:07:26;9.07;;;3.13;;
69047;SDS011;56119;50.118;8.642;2023-05-18T06:09:54;8.18;;;3.60;;
69047;SDS011;56119;50.118;8.642;2023-05-18T06:12:19;11.45;;;3.47;;
69047;SDS011;56119;50.118;8.642;2023-05-18T06:14:46;10.70;;;4.45;;
69047;SDS011;56119;50.118;8.642;2023-05-18T06:17:11;9.02;;;3.50;;
69047;SDS011;56119;50.118;8.642;2023-05-18T06:19:37;9.40;;;3.47;;
69047;SDS011;56119;50.118;8.642;2023-05-18T06:22:04;9.23;;;3.67;;
69047;SDS011;56119;50.118;8.642;2023-05-18T06:24:30;10.05;;;3.70;;
69047;SDS011;56119;50.118;8.642;2023-05-18T06:26:56;6.32;;;3.40;;
69047;SDS011;56119;50.118;8.642;2023-05-18T06:29:22;7.00;;;3.50;;
69047;SDS011;56119;50.118;8.642;2023-05-18T06:31:48;12.68;;;3.92;;
69047;SDS011;56119;50.118;8.642;2023-05-18T06:34:14;8.75;;;3.65;;
69047;SDS011;56119;50.118;8.642;2023-05-18T06:36:40;8.80;;;3.25;;
69047;SDS011;56119;50.118;8.642;2023-05-18T06:39:06;9.60;;;3.55;;
69047;SDS011;56119;50.118;8.642;2023-05-18T06:41:32;9.93;;;3.42;;
69047;SDS011;56119;50.118;8.642;2023-05-18T06:43:58;8.18;;;3.63;;
69047;SDS011;56119;50.118;8.642;2023-05-18T06:46:25;12.25;;;3.58;;
69047;SDS011;56119;50.118;8.642;2023-05-18T06:48:51;9.23;;;3.55;;
69047;SDS011;56119;50.118;8.642;2023-05-18T06:51:18;9.40;;;3.22;;
69047;SDS011;56119;50.118;8.642;2023-05-18T06:53:44;11.50;;;3.80;;
69047;SDS011;56119;50.118;8.642;2023-05-18T06:56:10;8.90;;;3.58;;
69047;SDS011;56119;50.118;8.642;2023-05-18T06:58:37;10.90;;;3.45;;
69047;SDS011;56119;50.118;8.642;2023-05-18T07:01:03;11.05;;;4.00;;
69047;SDS011;56119;50.118;8.642;2023-05-18T07:03:30;6.60;;;3.53;;
69047;SDS011;56119;50.118;8.642;2023-05-18T07:05:56;10.63;;;3.80;;
69047;SDS011;56119;50.118;8.642;2023-05-18T07:08:22;13.90;;;3.78;;
69047;SDS011;56119;50.118;8.642;2023-05-18T07:10:51;8.45;;;3.85;;
69047;SDS011;56119;50.118;8.642;2023-05-18T07:13:18;11.65;;;3.75;;
69047;SDS011;56119;50.118;8.642;2023-05-18T07:15:44;14.00;;;3.50;;
69047;SDS011;56119;50.118;8.642;2023-05-18T07:18:10;6.35;;;3.45;;
69047;SDS011;56119;50.118;8.642;2023-05-18T07:20:36;11.27;;;3.38;;
69047;SDS011;56119;50.118;8.642;2023-05-18T07:23:02;7.07;;;3.50;;
69047;SDS011;56119;50.118;8.642;2023-05-18T07:25:28;9.50;;;3.47;;
69047;SDS011;56119;50.118;8.642;2023-05-18T07:27:54;11.07;;;3.40;;
69047;SDS011;56119;50.118;8.642;2023-05-18T07:30:21;9.43;;;3.95;;
69047;SDS011;56119;50.118;8.642;2023-05-18T07:32:47;8.90;;;3.15;;
69047;SDS011;56119;50.118;8.642;2023-05-18T07:35:13;8.20;;;3.53;;
69047;SDS011;56119;50.118;8.642;2023-05-18T07:37:40;10.45;;;3.75;;
69047;SDS011;56119;50.118;8.642;2023-05-18T07:40:07;9.73;;;3.10;;
69047;SDS011;56119;50.118;8.642;2023-05-18T07:42:34;14.25;;;3.90;;
69047;SDS011;56119;50.118;8.642;2023-05-18T07:45:00;9.13;;;3.72;;
69047;SDS011;56119;50.118;8.642;2023-05-18T07:47:26;7.88;;;3.40;;
69047;SDS011;56119;50.118;8.642;2023-05-18T07:49:52;14.07;;;3.50;;
69047;SDS011;56119;50.118;8.642;2023-05-18T07:52:18;6.47;;;2.80;;
69047;SDS011;56119;50.118;8.642;2023-05-18T07:54:44;10.35;;;3.03;;
69047;SDS011;56119;50.118;8.642;2023-05-18T07:57:10;7.30;;;3.25;;
69047;SDS011;56119;50.118;8.642;2023-05-18T07:59:36;9.30;;;3.10;;
69047;SDS011;56119;50.118;8.642;2023-05-18T08:02:02;8.85;;;3.13;;
69047;SDS011;56119;50.118;8.642;2023-05-18T08:04:29;9.85;;;3.80;;
69047;SDS011;56119;50.118;8.642;2023-05-18T08:06:55;11.75;;;3.22;;
69047;SDS011;56119;50.118;8.642;2023-05-18T08:09:24;9.60;;;3.13;;
69047;SDS011;56119;50.118;8.642;2023-05-18T08:11:50;11.35;;;2.97;;
69047;SDS011;56119;50.118;8.642;2023-05-18T08:14:17;11.23;;;3.63;;
69047;SDS011;56119;50.118;8.642;2023-05-18T08:16:43;10.95;;;3.50;;
69047;SDS011;56119;50.118;8.642;2023-05-18T08:19:09;9.45;;;3.33;;
69047;SDS011;56119;50.118;8.642;2023-05-18T08:21:35;7.63;;;3.00;;
69047;SDS011;56119;50.118;8.642;2023-05-18T08:24:02;7.10;;;2.63;;
69047;SDS011;56119;50.118;8.642;2023-05-18T08:26:28;10.45;;;3.10;;
69047;SDS011;56119;50.118;8.642;2023-05-18T08:28:54;10.38;;;3.80;;
69047;SDS011;56119;50.118;8.642;2023-05-18T08:31:20;9.18;;;3.50;;
69047;SDS011;56119;50.118;8.642;2023-05-18T08:33:46;9.57;;;3.72;;
69047;SDS011;56119;50.118;8.642;2023-05-18T08:36:12;8.60;;;3.17;;
69047;SDS011;56119;50.118;8.642;2023-05-18T08:38:38;5.72;;;2.70;;
69047;SDS011;56119;50.118;8.642;2023-05-18T08:43:41;10.23;;;3.33;;
69047;SDS011;56119;50.118;8.642;2023-05-18T08:48:33;12.68;;;3.10;;
69047;SDS011;56119;50.118;8.642;2023-05-18T08:51:01;6.20;;;2.60;;
69047;SDS011;56119;50.118;8.642;2023-05-18T08:53:28;7.00;;;2.40;;
69047;SDS011;56119;50.118;8.642;2023-05-18T08:55:55;9.43;;;2.80;;
69047;SDS011;56119;50.118;8.642;2023-05-18T08:58:26;7.03;;;2.67;;
69047;SDS011;56119;50.118;8.642;2023-05-18T09:00:55;9.23;;;2.47;;
69047;SDS011;56119;50.118;8.642;2023-05-18T09:03:21;8.13;;;2.55;;
69047;SDS011;56119;50.118;8.642;2023-05-18T09:05:48;6.22;;;2.45;;
69047;SDS011;56119;50.118;8.642;2023-05-18T09:08:15;10.23;;;2.90;;
69047;SDS011;56119;50.118;8.642;2023-05-18T09:10:41;8.95;;;3.05;;
69047;SDS011;56119;50.118;8.642;2023-05-18T09:13:07;10.27;;;2.78;;
69047;SDS011;56119;50.118;8.642;2023-05-18T09:15:34;7.88;;;2.67;;
69047;SDS011;56119;50.118;8.642;2023-05-18T09:18:00;7.70;;;2.88;;
69047;SDS011;56119;50.118;8.642;2023-05-18T09:20:27;6.70;;;2.65;;
69047;SDS011;56119;50.118;8.642;2023-05-18T09:22:54;8.25;;;2.75;;
69047;SDS011;56119;50.118;8.642;2023-05-18T09:25:20;7.80;;;2.55;;
69047;SDS011;56119;50.118;8.642;2023-05-18T09:27:48;7.43;;;3.13;;
69047;SDS011;56119;50.118;8.642;2023-05-18T09:30:16;7.78;;;2.75;;
69047;SDS011;56119;50.118;8.642;2023-05-18T09:32:44;5.78;;;2.53;;
69047;SDS011;56119;50.118;8.642;2023-05-18T09:35:11;7.43;;;2.75;;
69047;SDS011;56119;50.118;8.642;2023-05-18T09:37:40;9.50;;;3.00;;
69047;SDS011;56119;50.118;8.642;2023-05-18T09:40:06;6.72;;;2.88;;
69047;SDS011;56119;50.118;8.642;2023-05-18T09:42:39;6.22;;;2.58;;
69047;SDS011;56119;50.118;8.642;2023-05-18T09:45:14;6.28;;;2.65;;
69047;SDS011;56119;50.118;8.642;2023-05-18T09:47:40;7.45;;;2.40;;
69047;SDS011;56119;50.118;8.642;2023-05-18T09:50:06;7.43;;;2.42;;
69047;SDS011;56119;50.118;8.642;2023-05-18T09:52:39;6.30;;;2.33;;
69047;SDS011;56119;50.118;8.642;2023-05-18T09:55:05;6.97;;;2.33;;
69047;SDS011;56119;50.118;8.642;2023-05-18T09:57:31;8.80;;;2.65;;
69047;SDS011;56119;50.118;8.642;2023-05-18T10:00:02;6.18;;;2.20;;
69047;SDS011;56119;50.118;8.642;2023-05-18T10:02:31;7.72;;;2.83;;
69047;SDS011;56119;50.118;8.642;2023-05-18T10:04:57;13.70;;;3.38;;
69047;SDS011;56119;50.118;8.642;2023-05-18T10:07:23;6.75;;;2.72;;
69047;SDS011;56119;50.118;8.642;2023-05-18T10:09:59;7.72;;;2.65;;
69047;SDS011;56119;50.118;8.642;2023-05-18T10:12:25;8.73;;;2.78;;
69047;SDS011;56119;50.118;8.642;2023-05-18T10:14:51;7.53;;;2.95;;
69047;SDS011;56119;50.118;8.642;2023-05-18T10:17:17;5.35;;;2.65;;
69047;SDS011;56119;50.118;8.642;2023-05-18T10:19:43;9.65;;;2.40;;
69047;SDS011;56119;50.118;8.642;2023-05-18T10:22:10;8.85;;;2.92;;
69047;SDS011;56119;50.118;8.642;2023-05-18T10:24:38;8.18;;;2.70;;
69047;SDS011;56119;50.118;8.642;2023-05-18T10:27:05;5.97;;;2.67;;
69047;SDS011;56119;50.118;8.642;2023-05-18T10:29:33;7.28;;;2.13;;
69047;SDS011;56119;50.118;8.642;2023-05-18T10:32:00;3.65;;;2.10;;
69047;SDS011;56119;50.118;8.642;2023-05-18T10:34:28;4.43;;;2.15;;
69047;SDS011;56119;50.118;8.642;2023-05-18T10:36:54;5.80;;;2.50;;
69047;SDS011;56119;50.118;8.642;2023-05-18T10:39:21;9.77;;;2.28;;
69047;SDS011;56119;50.118;8.642;2023-05-18T10:41:47;7.38;;;1.98;;
69047;SDS011;56119;50.118;8.642;2023-05-18T10:44:14;8.48;;;2.42;;
69047;SDS011;56119;50.118;8.642;2023-05-18T10:46:40;7.65;;;2.53;;
69047;SDS011;56119;50.118;8.642;2023-05-18T10:49:06;8.82;;;2.38;;
69047;SDS011;56119;50.118;8.642;2023-05-18T10:51:37;7.00;;;2.78;;
69047;SDS011;56119;50.118;8.642;2023-05-18T10:54:10;8.27;;;2.60;;
69047;SDS011;56119;50.118;8.642;2023-05-18T10:56:38;8.23;;;2.53;;
69047;SDS011;56119;50.118;8.642;2023-05-18T10:59:05;7.25;;;2.65;;
69047;SDS011;56119;50.118;8.642;2023-05-18T11:01:32;10.05;;;3.17;;
69047;SDS011;56119;50.118;8.642;2023-05-18T11:04:00;6.80;;;2.75;;
69047;SDS011;56119;50.118;8.642;2023-05-18T11:06:26;10.40;;;3.58;;
69047;SDS011;56119;50.118;8.642;2023-05-18T11:08:52;7.18;;;2.75;;
69047;SDS011;56119;50.118;8.642;2023-05-18T11:11:19;11.98;;;3.22;;
69047;SDS011;56119;50.118;8.642;2023-05-18T11:13:50;5.80;;;2.22;;
69047;SDS011;56119;50.118;8.642;2023-05-18T11:16:16;6.75;;;2.17;;
69047;SDS011;56119;50.118;8.642;2023-05-18T11:18:49;8.73;;;2.70;;
69047;SDS011;56119;50.118;8.642;2023-05-18T11:26:41;5.45;;;2.40;;
69047;SDS011;56119;50.118;8.642;2023-05-18T11:29:16;5.93;;;2.40;;
69047;SDS011;56119;50.118;8.642;2023-05-18T11:31:46;7.40;;;2.50;;
69047;SDS011;56119;50.118;8.642;2023-05-18T11:36:57;5.15;;;2.28;;
69047;SDS011;56119;50.118;8.642;2023-05-18T11:39:23;11.40;;;2.70;;
69047;SDS011;56119;50.118;8.642;2023-05-18T11:41:59;8.13;;;2.58;;
69047;SDS011;56119;50.118;8.642;2023-05-18T11:44:26;3.80;;;1.70;;
69047;SDS011;56119;50.118;8.642;2023-05-18T11:49:19;5.85;;;2.20;;
69047;SDS011;56119;50.118;8.642;2023-05-18T11:51:55;7.55;;;2.10;;
69047;SDS011;56119;50.118;8.642;2023-05-18T11:54:22;9.32;;;2.88;;
69047;SDS011;56119;50.118;8.642;2023-05-18T11:56:49;6.70;;;2.28;;
69047;SDS011;56119;50.118;8.642;2023-05-18T11:59:15;9.00;;;2.45;;
69047;SDS011;56119;50.118;8.642;2023-05-18T12:01:41;10.18;;;2.60;;
69047;SDS011;56119;50.118;8.642;2023-05-18T12:04:07;4.63;;;1.98;;
69047;SDS011;56119;50.118;8.642;2023-05-18T12:06:34;8.48;;;2.85;;
69047;SDS011;56119;50.118;8.642;2023-05-18T12:09:01;5.65;;;2.30;;
69047;SDS011;56119;50.118;8.642;2023-05-18T12:11:28;7.00;;;2.50;;
69047;SDS011;56119;50.118;8.642;2023-05-18T12:13:55;6.63;;;2.22;;
69047;SDS011;56119;50.118;8.642;2023-05-18T12:16:21;6.75;;;2.15;;
69047;SDS011;56119;50.118;8.642;2023-05-18T12:18:49;6.93;;;2.17;;
69047;SDS011;56119;50.118;8.642;2023-05-18T12:21:21;7.63;;;2.60;;
69047;SDS011;56119;50.118;8.642;2023-05-18T12:23:48;6.63;;;2.38;;
69047;SDS011;56119;50.118;8.642;2023-05-18T12:26:21;9.52;;;2.45;;
69047;SDS011;56119;50.118;8.642;2023-05-18T12:28:52;5.72;;;1.90;;
69047;SDS011;56119;50.118;8.642;2023-05-18T12:31:18;7.07;;;2.30;;
69047;SDS011;56119;50.118;8.642;2023-05-18T12:33:44;5.60;;;2.38;;
69047;SDS011;56119;50.118;8.642;2023-05-18T12:36:11;7.80;;;2.67;;
69047;SDS011;56119;50.118;8.642;2023-05-18T12:38:37;8.70;;;2.55;;
69047;SDS011;56119;50.118;8.642;2023-05-18T12:41:03;7.10;;;2.42;;
69047;SDS011;56119;50.118;8.642;2023-05-18T12:43:33;7.07;;;2.20;;
69047;SDS011;56119;50.118;8.642;2023-05-18T12:46:03;8.50;;;2.47;;
69047;SDS011;56119;50.118;8.642;2023-05-18T12:48:44;7.43;;;2.83;;
69047;SDS011;56119;50.118;8.642;2023-05-18T12:51:17;6.55;;;2.47;;
69047;SDS011;56119;50.118;8.642;2023-05-18T12:53:43;5.30;;;2.47;;
69047;SDS011;56119;50.118;8.642;2023-05-18T12:56:10;6.70;;;2.58;;
69047;SDS011;56119;50.118;8.642;2023-05-18T12:58:36;9.15;;;3.03;;
69047;SDS011;56119;50.118;8.642;2023-05-18T13:01:07;6.72;;;2.67;;
69047;SDS011;56119;50.118;8.642;2023-05-18T13:03:34;8.95;;;2.40;;
69047;SDS011;56119;50.118;8.642;2023-05-18T13:06:01;10.45;;;2.78;;
69047;SDS011;56119;50.118;8.642;2023-05-18T13:08:28;7.15;;;2.38;;
69047;SDS011;56119;50.118;8.642;2023-05-18T13:10:59;7.28;;;2.75;;
69047;SDS011;56119;50.118;8.642;2023-05-18T13:13:26;7.03;;;2.35;;
69047;SDS011;56119;50.118;8.642;2023-05-18T13:15:52;7.05;;;2.45;;
69047;SDS011;56119;50.118;8.642;2023-05-18T13:18:18;5.90;;;2.15;;
69047;SDS011;56119;50.118;8.642;2023-05-18T13:20:45;5.97;;;2.35;;
69047;SDS011;56119;50.118;8.642;2023-05-18T13:23:14;7.10;;;2.30;;
69047;SDS011;56119;50.118;8.642;2023-05-18T13:25:40;9.10;;;2.67;;
69047;SDS011;56119;50.118;8.642;2023-05-18T13:28:07;8.30;;;3.08;;
69047;SDS011;56119;50.118;8.642;2023-05-18T13:30:37;8.30;;;2.10;;
69047;SDS011;56119;50.118;8.642;2023-05-18T13:33:03;4.63;;;2.20;;
69047;SDS011;56119;50.118;8.642;2023-05-18T13:35:32;4.70;;;2.30;;
69047;SDS011;56119;50.118;8.642;2023-05-18T13:37:58;6.38;;;2.40;;
69047;SDS011;56119;50.118;8.642;2023-05-18T13:40:24;6.70;;;2.03;;
69047;SDS011;56119;50.118;8.642;2023-05-18T13:42:50;7.90;;;2.65;;
69047;SDS011;56119;50.118;8.642;2023-05-18T13:45:16;6.00;;;2.55;;
69047;SDS011;56119;50.118;8.642;2023-05-18T13:47:42;10.68;;;2.47;;
69047;SDS011;56119;50.118;8.642;2023-05-18T13:50:14;7.75;;;2.42;;
69047;SDS011;56119;50.118;8.642;2023-05-18T13:52:40;5.20;;;2.65;;
69047;SDS011;56119;50.118;8.642;2023-05-18T13:55:06;4.72;;;1.88;;
69047;SDS011;56119;50.118;8.642;2023-05-18T13:57:33;6.95;;;2.58;;
69047;SDS011;56119;50.118;8.642;2023-05-18T13:59:59;6.07;;;2.30;;
69047;SDS011;56119;50.118;8.642;2023-05-18T14:02:34;7.22;;;2.63;;
69047;SDS011;56119;50.118;8.642;2023-05-18T14:04:59;7.40;;;2.80;;
69047;SDS011;56119;50.118;8.642;2023-05-18T14:07:27;7.65;;;2.67;;
69047;SDS011;56119;50.118;8.642;2023-05-18T14:09:53;4.28;;;2.38;;
69047;SDS011;56119;50.118;8.642;2023-05-18T14:12:19;5.50;;;2.47;;
69047;SDS011;56119;50.118;8.642;2023-05-18T14:14:45;8.52;;;3.97;;
69047;SDS011;56119;50.118;8.642;2023-05-18T14:17:11;6.30;;;2.72;;
69047;SDS011;56119;50.118;8.642;2023-05-18T14:19:37;7.95;;;2.47;;
69047;SDS011;56119;50.118;8.642;2023-05-18T14:22:04;6.45;;;2.88;;
69047;SDS011;56119;50.118;8.642;2023-05-18T14:24:30;7.38;;;3.17;;
69047;SDS011;56119;50.118;8.642;2023-05-18T14:26:56;10.60;;;6.53;;
69047;SDS011;56119;50.118;8.642;2023-05-18T14:29:22;7.70;;;3.42;;
69047;SDS011;56119;50.118;8.642;2023-05-18T14:31:48;7.28;;;3.40;;
69047;SDS011;56119;50.118;8.642;2023-05-18T14:34:14;6.75;;;3.53;;
69047;SDS011;56119;50.118;8.642;2023-05-18T14:36:40;11.13;;;6.38;;
69047;SDS011;56119;50.118;8.642;2023-05-18T14:39:06;5.50;;;2.83;;
69047;SDS011;56119;50.118;8.642;2023-05-18T14:41:32;6.30;;;3.40;;
69047;SDS011;56119;50.118;8.642;2023-05-18T14:43:58;13.05;;;6.60;;
69047;SDS011;56119;50.118;8.642;2023-05-18T14:46:27;10.35;;;7.15;;
69047;SDS011;56119;50.118;8.642;2023-05-18T14:48:53;10.68;;;6.88;;
69047;SDS011;56119;50.118;8.642;2023-05-18T14:51:19;10.23;;;6.15;;
69047;SDS011;56119;50.118;8.642;2023-05-18T14:53:47;9.00;;;4.20;;
69047;SDS011;56119;50.118;8.642;2023-05-18T14:56:13;6.57;;;2.63;;
69047;SDS011;56119;50.118;8.642;2023-05-18T14:58:39;5.97;;;2.72;;
69047;SDS011;56119;50.118;8.642;2023-05-18T15:01:05;6.97;;;3.50;;
69047;SDS011;56119;50.118;8.642;2023-05-18T15:03:31;5.97;;;2.22;;